sensor_id;sensor_type;location;lat;lon;timestamp;P1;durP1;ratioP1;P2;durP2;ratioP2
4895;SDS011;2463;49.948;8.472;2022-07-10T00:00:02;96.28;;;6.18;;
4895;SDS011;2463;49.948;8.472;2022-07-10T00:02:30;94.75;;;6.03;;
4895;SDS011;2463;49.948;8.472;2022-07-10T00:04:57;96.75;;;6.20;;
4895;SDS011;2463;49.948;8.472;2022-07-10T00:07:24;97.60;;;6.05;;
4895;SDS011;2463;49.948;8.472;2022-07-10T00:09:51;96.07;;;6.32;;
4895;SDS011;2463;49.948;8.472;2022-07-10T00:12:17;92.82;;;5.57;;
4895;SDS011;2463;49.948;8.472;2022-07-10T00:14:44;95.40;;;6.10;;
4895;SDS011;2463;49.948;8.472;2022-07-10T00:17:11;99.25;;;5.30;;
4895;SDS011;2463;49.948;8.472;2022-07-10T00:19:37;93.43;;;5.63;;
4895;SDS011;2463;49.948;8.472;2022-07-10T00:22:04;94.78;;;6.15;;
4895;SDS011;2463;49.948;8.472;2022-07-10T00:24:31;92.95;;;6.03;;
4895;SDS011;2463;49.948;8.472;2022-07-10T00:26:58;94.03;;;5.88;;
4895;SDS011;2463;49.948;8.472;2022-07-10T00:29:25;93.45;;;5.53;;
4895;SDS011;2463;49.948;8.472;2022-07-10T00:31:52;93.70;;;5.80;;
4895;SDS011;2463;49.948;8.472;2022-07-10T00:34:18;96.93;;;6.00;;
4895;SDS011;2463;49.948;8.472;2022-07-10T00:36:45;94.07;;;5.70;;
4895;SDS011;2463;49.948;8.472;2022-07-10T00:39:13;92.78;;;5.15;;
4895;SDS011;2463;49.948;8.472;2022-07-10T00:41:39;94.20;;;5.50;;
4895;SDS011;2463;49.948;8.472;2022-07-10T00:44:06;97.50;;;5.53;;
4895;SDS011;2463;49.948;8.472;2022-07-10T00:46:33;95.10;;;5.30;;
4895;SDS011;2463;49.948;8.472;2022-07-10T00:49:01;98.68;;;5.80;;
4895;SDS011;2463;49.948;8.472;2022-07-10T00:51:29;94.22;;;5.35;;
4895;SDS011;2463;49.948;8.472;2022-07-10T00:53:57;95.43;;;5.35;;
4895;SDS011;2463;49.948;8.472;2022-07-10T00:56:25;93.18;;;5.50;;
4895;SDS011;2463;49.948;8.472;2022-07-10T00:58:53;94.50;;;5.57;;
4895;SDS011;2463;49.948;8.472;2022-07-10T01:01:20;95.22;;;5.70;;
4895;SDS011;2463;49.948;8.472;2022-07-10T01:03:49;93.13;;;5.43;;
4895;SDS011;2463;49.948;8.472;2022-07-10T01:06:16;92.88;;;5.57;;
4895;SDS011;2463;49.948;8.472;2022-07-10T01:08:44;95.32;;;5.95;;
4895;SDS011;2463;49.948;8.472;2022-07-10T01:11:11;103.45;;;5.90;;
4895;SDS011;2463;49.948;8.472;2022-07-10T01:13:40;94.20;;;5.25;;
4895;SDS011;2463;49.948;8.472;2022-07-10T01:16:08;92.68;;;5.20;;
4895;SDS011;2463;49.948;8.472;2022-07-10T01:18:36;95.95;;;5.68;;
4895;SDS011;2463;49.948;8.472;2022-07-10T01:21:03;94.32;;;5.20;;
4895;SDS011;2463;49.948;8.472;2022-07-10T01:23:30;94.30;;;5.20;;
4895;SDS011;2463;49.948;8.472;2022-07-10T01:25:57;94.05;;;5.20;;
4895;SDS011;2463;49.948;8.472;2022-07-10T01:28:24;94.68;;;5.40;;
4895;SDS011;2463;49.948;8.472;2022-07-10T01:30:54;93.45;;;5.47;;
4895;SDS011;2463;49.948;8.472;2022-07-10T01:33:21;93.03;;;5.07;;
4895;SDS011;2463;49.948;8.472;2022-07-10T01:35:47;93.45;;;4.78;;
4895;SDS011;2463;49.948;8.472;2022-07-10T01:38:14;95.68;;;5.63;;
4895;SDS011;2463;49.948;8.472;2022-07-10T01:40:41;94.30;;;5.25;;
4895;SDS011;2463;49.948;8.472;2022-07-10T01:43:07;94.80;;;5.18;;
4895;SDS011;2463;49.948;8.472;2022-07-10T01:45:34;94.88;;;5.00;;
4895;SDS011;2463;49.948;8.472;2022-07-10T01:48:01;93.25;;;4.90;;
4895;SDS011;2463;49.948;8.472;2022-07-10T01:50:28;94.30;;;5.45;;
4895;SDS011;2463;49.948;8.472;2022-07-10T01:52:55;100.03;;;5.60;;
4895;SDS011;2463;49.948;8.472;2022-07-10T01:55:21;94.05;;;5.25;;
4895;SDS011;2463;49.948;8.472;2022-07-10T01:57:48;93.78;;;4.93;;
4895;SDS011;2463;49.948;8.472;2022-07-10T02:00:15;93.38;;;5.13;;
4895;SDS011;2463;49.948;8.472;2022-07-10T02:02:42;97.90;;;4.95;;
4895;SDS011;2463;49.948;8.472;2022-07-10T02:05:29;96.18;;;5.40;;
4895;SDS011;2463;49.948;8.472;2022-07-10T02:07:56;94.18;;;4.95;;
4895;SDS011;2463;49.948;8.472;2022-07-10T02:10:22;92.78;;;5.00;;
4895;SDS011;2463;49.948;8.472;2022-07-10T02:12:49;93.65;;;5.13;;
4895;SDS011;2463;49.948;8.472;2022-07-10T02:15:16;95.60;;;5.40;;
4895;SDS011;2463;49.948;8.472;2022-07-10T02:17:42;96.85;;;5.35;;
4895;SDS011;2463;49.948;8.472;2022-07-10T02:20:09;95.00;;;5.15;;
4895;SDS011;2463;49.948;8.472;2022-07-10T02:22:37;94.55;;;5.38;;
4895;SDS011;2463;49.948;8.472;2022-07-10T02:25:03;96.75;;;6.35;;
4895;SDS011;2463;49.948;8.472;2022-07-10T02:27:31;95.68;;;5.10;;
4895;SDS011;2463;49.948;8.472;2022-07-10T02:29:57;96.82;;;5.30;;
4895;SDS011;2463;49.948;8.472;2022-07-10T02:32:24;99.93;;;6.25;;
4895;SDS011;2463;49.948;8.472;2022-07-10T02:34:51;95.88;;;5.00;;
4895;SDS011;2463;49.948;8.472;2022-07-10T02:37:18;97.28;;;5.40;;
4895;SDS011;2463;49.948;8.472;2022-07-10T02:39:44;96.57;;;5.13;;
4895;SDS011;2463;49.948;8.472;2022-07-10T02:42:11;95.47;;;5.55;;
4895;SDS011;2463;49.948;8.472;2022-07-10T02:44:38;93.68;;;5.40;;
4895;SDS011;2463;49.948;8.472;2022-07-10T02:47:04;95.50;;;5.60;;
4895;SDS011;2463;49.948;8.472;2022-07-10T02:49:31;93.72;;;5.32;;
4895;SDS011;2463;49.948;8.472;2022-07-10T02:51:59;94.05;;;5.25;;
4895;SDS011;2463;49.948;8.472;2022-07-10T02:54:26;101.00;;;5.43;;
4895;SDS011;2463;49.948;8.472;2022-07-10T02:56:52;95.05;;;5.10;;
4895;SDS011;2463;49.948;8.472;2022-07-10T02:59:19;94.05;;;5.00;;
4895;SDS011;2463;49.948;8.472;2022-07-10T03:01:46;94.32;;;5.05;;
4895;SDS011;2463;49.948;8.472;2022-07-10T03:04:13;93.72;;;5.10;;
4895;SDS011;2463;49.948;8.472;2022-07-10T03:06:39;99.30;;;5.40;;
4895;SDS011;2463;49.948;8.472;2022-07-10T03:09:06;94.25;;;4.75;;
4895;SDS011;2463;49.948;8.472;2022-07-10T03:11:33;96.93;;;5.47;;
4895;SDS011;2463;49.948;8.472;2022-07-10T03:14:00;97.45;;;5.40;;
4895;SDS011;2463;49.948;8.472;2022-07-10T03:16:26;92.50;;;4.95;;
4895;SDS011;2463;49.948;8.472;2022-07-10T03:18:53;92.82;;;4.82;;
4895;SDS011;2463;49.948;8.472;2022-07-10T03:21:20;95.32;;;5.50;;
4895;SDS011;2463;49.948;8.472;2022-07-10T03:23:47;95.32;;;5.43;;
4895;SDS011;2463;49.948;8.472;2022-07-10T03:26:13;94.82;;;5.13;;
4895;SDS011;2463;49.948;8.472;2022-07-10T03:28:40;93.65;;;5.85;;
4895;SDS011;2463;49.948;8.472;2022-07-10T03:31:08;95.43;;;5.50;;
4895;SDS011;2463;49.948;8.472;2022-07-10T03:33:34;92.05;;;4.75;;
4895;SDS011;2463;49.948;8.472;2022-07-10T03:36:01;101.35;;;5.38;;
4895;SDS011;2463;49.948;8.472;2022-07-10T03:38:29;93.85;;;5.22;;
4895;SDS011;2463;49.948;8.472;2022-07-10T03:40:56;94.22;;;5.93;;
4895;SDS011;2463;49.948;8.472;2022-07-10T03:43:22;93.50;;;4.72;;
4895;SDS011;2463;49.948;8.472;2022-07-10T03:45:51;93.32;;;4.78;;
4895;SDS011;2463;49.948;8.472;2022-07-10T03:48:17;95.28;;;5.03;;
4895;SDS011;2463;49.948;8.472;2022-07-10T03:50:44;92.38;;;4.65;;
4895;SDS011;2463;49.948;8.472;2022-07-10T03:53:11;92.72;;;4.82;;
4895;SDS011;2463;49.948;8.472;2022-07-10T03:55:38;97.78;;;5.20;;
4895;SDS011;2463;49.948;8.472;2022-07-10T03:58:05;93.97;;;5.38;;
4895;SDS011;2463;49.948;8.472;2022-07-10T04:00:31;94.90;;;5.13;;
4895;SDS011;2463;49.948;8.472;2022-07-10T04:02:59;92.38;;;4.60;;
4895;SDS011;2463;49.948;8.472;2022-07-10T04:05:33;93.97;;;5.05;;
4895;SDS011;2463;49.948;8.472;2022-07-10T04:08:01;94.90;;;5.03;;
4895;SDS011;2463;49.948;8.472;2022-07-10T04:10:29;94.10;;;4.93;;
4895;SDS011;2463;49.948;8.472;2022-07-10T04:12:57;94.68;;;5.07;;
4895;SDS011;2463;49.948;8.472;2022-07-10T04:15:24;93.18;;;5.00;;
4895;SDS011;2463;49.948;8.472;2022-07-10T04:17:51;93.15;;;5.03;;
4895;SDS011;2463;49.948;8.472;2022-07-10T04:20:18;92.93;;;5.00;;
4895;SDS011;2463;49.948;8.472;2022-07-10T04:22:46;97.40;;;5.55;;
4895;SDS011;2463;49.948;8.472;2022-07-10T04:25:13;93.32;;;5.00;;
4895;SDS011;2463;49.948;8.472;2022-07-10T04:27:40;95.22;;;5.45;;
4895;SDS011;2463;49.948;8.472;2022-07-10T04:30:07;97.90;;;5.32;;
4895;SDS011;2463;49.948;8.472;2022-07-10T04:32:33;94.93;;;4.95;;
4895;SDS011;2463;49.948;8.472;2022-07-10T04:35:00;96.35;;;5.10;;
4895;SDS011;2463;49.948;8.472;2022-07-10T04:37:27;92.97;;;4.93;;
4895;SDS011;2463;49.948;8.472;2022-07-10T04:39:55;97.47;;;5.03;;
4895;SDS011;2463;49.948;8.472;2022-07-10T04:42:24;94.65;;;5.30;;
4895;SDS011;2463;49.948;8.472;2022-07-10T04:44:52;93.60;;;4.60;;
4895;SDS011;2463;49.948;8.472;2022-07-10T04:47:19;93.43;;;5.03;;
4895;SDS011;2463;49.948;8.472;2022-07-10T04:49:45;93.15;;;4.70;;
4895;SDS011;2463;49.948;8.472;2022-07-10T04:52:12;94.07;;;4.70;;
4895;SDS011;2463;49.948;8.472;2022-07-10T04:54:39;93.93;;;4.70;;
4895;SDS011;2463;49.948;8.472;2022-07-10T04:57:05;101.90;;;4.90;;
4895;SDS011;2463;49.948;8.472;2022-07-10T04:59:32;93.88;;;4.82;;
4895;SDS011;2463;49.948;8.472;2022-07-10T05:01:59;102.85;;;5.40;;
4895;SDS011;2463;49.948;8.472;2022-07-10T05:04:26;93.18;;;4.90;;
4895;SDS011;2463;49.948;8.472;2022-07-10T05:06:52;96.30;;;4.68;;
4895;SDS011;2463;49.948;8.472;2022-07-10T05:09:19;93.22;;;4.57;;
4895;SDS011;2463;49.948;8.472;2022-07-10T05:11:46;93.72;;;4.75;;
4895;SDS011;2463;49.948;8.472;2022-07-10T05:14:13;94.38;;;5.03;;
4895;SDS011;2463;49.948;8.472;2022-07-10T05:16:40;95.20;;;4.82;;
4895;SDS011;2463;49.948;8.472;2022-07-10T05:19:07;97.32;;;4.50;;
4895;SDS011;2463;49.948;8.472;2022-07-10T05:21:33;93.82;;;4.30;;
4895;SDS011;2463;49.948;8.472;2022-07-10T05:24:00;96.85;;;4.85;;
4895;SDS011;2463;49.948;8.472;2022-07-10T05:26:27;104.28;;;5.18;;
4895;SDS011;2463;49.948;8.472;2022-07-10T05:28:54;98.50;;;4.60;;
4895;SDS011;2463;49.948;8.472;2022-07-10T05:31:20;92.70;;;4.68;;
4895;SDS011;2463;49.948;8.472;2022-07-10T05:33:47;95.05;;;5.88;;
4895;SDS011;2463;49.948;8.472;2022-07-10T05:36:14;94.88;;;4.82;;
4895;SDS011;2463;49.948;8.472;2022-07-10T05:38:41;93.13;;;4.80;;
4895;SDS011;2463;49.948;8.472;2022-07-10T05:41:08;92.13;;;4.38;;
4895;SDS011;2463;49.948;8.472;2022-07-10T05:43:34;97.57;;;5.07;;
4895;SDS011;2463;49.948;8.472;2022-07-10T05:46:01;93.78;;;4.85;;
4895;SDS011;2463;49.948;8.472;2022-07-10T05:48:28;91.82;;;4.40;;
4895;SDS011;2463;49.948;8.472;2022-07-10T05:50:56;92.13;;;4.35;;
4895;SDS011;2463;49.948;8.472;2022-07-10T05:53:43;92.85;;;4.47;;
4895;SDS011;2463;49.948;8.472;2022-07-10T05:56:10;91.65;;;4.43;;
4895;SDS011;2463;49.948;8.472;2022-07-10T05:58:37;91.57;;;4.30;;
4895;SDS011;2463;49.948;8.472;2022-07-10T06:01:04;93.18;;;4.30;;
4895;SDS011;2463;49.948;8.472;2022-07-10T06:03:31;94.38;;;4.38;;
4895;SDS011;2463;49.948;8.472;2022-07-10T06:05:58;92.85;;;4.50;;
4895;SDS011;2463;49.948;8.472;2022-07-10T06:08:26;97.57;;;4.57;;
4895;SDS011;2463;49.948;8.472;2022-07-10T06:10:53;96.20;;;4.93;;
4895;SDS011;2463;49.948;8.472;2022-07-10T06:13:19;93.00;;;4.20;;
4895;SDS011;2463;49.948;8.472;2022-07-10T06:15:47;94.68;;;4.35;;
4895;SDS011;2463;49.948;8.472;2022-07-10T06:18:14;92.57;;;4.55;;
4895;SDS011;2463;49.948;8.472;2022-07-10T06:20:40;91.55;;;4.15;;
4895;SDS011;2463;49.948;8.472;2022-07-10T06:23:07;92.07;;;3.90;;
4895;SDS011;2463;49.948;8.472;2022-07-10T06:25:34;91.00;;;4.18;;
4895;SDS011;2463;49.948;8.472;2022-07-10T06:28:00;93.45;;;4.40;;
4895;SDS011;2463;49.948;8.472;2022-07-10T06:30:27;95.63;;;4.18;;
4895;SDS011;2463;49.948;8.472;2022-07-10T06:32:54;90.38;;;4.10;;
4895;SDS011;2463;49.948;8.472;2022-07-10T06:35:20;92.13;;;3.95;;
4895;SDS011;2463;49.948;8.472;2022-07-10T06:37:47;89.32;;;3.92;;
4895;SDS011;2463;49.948;8.472;2022-07-10T06:40:14;93.10;;;4.65;;
4895;SDS011;2463;49.948;8.472;2022-07-10T06:42:41;89.50;;;3.70;;
4895;SDS011;2463;49.948;8.472;2022-07-10T06:45:10;87.93;;;3.40;;
4895;SDS011;2463;49.948;8.472;2022-07-10T06:47:37;90.53;;;3.60;;
4895;SDS011;2463;49.948;8.472;2022-07-10T06:50:24;85.77;;;3.17;;
4895;SDS011;2463;49.948;8.472;2022-07-10T06:52:52;85.13;;;3.10;;
4895;SDS011;2463;49.948;8.472;2022-07-10T06:55:19;84.17;;;3.13;;
4895;SDS011;2463;49.948;8.472;2022-07-10T06:57:46;82.30;;;2.60;;
4895;SDS011;2463;49.948;8.472;2022-07-10T07:00:14;83.03;;;3.23;;
4895;SDS011;2463;49.948;8.472;2022-07-10T07:02:41;81.47;;;2.70;;
4895;SDS011;2463;49.948;8.472;2022-07-10T07:05:09;89.20;;;2.70;;
4895;SDS011;2463;49.948;8.472;2022-07-10T07:07:36;79.50;;;2.70;;
4895;SDS011;2463;49.948;8.472;2022-07-10T07:10:03;78.77;;;2.10;;
4895;SDS011;2463;49.948;8.472;2022-07-10T07:12:31;79.90;;;2.30;;
4895;SDS011;2463;49.948;8.472;2022-07-10T07:14:58;79.27;;;2.23;;
4895;SDS011;2463;49.948;8.472;2022-07-10T07:17:24;81.50;;;2.30;;
4895;SDS011;2463;49.948;8.472;2022-07-10T07:19:59;78.60;;;1.97;;
4895;SDS011;2463;49.948;8.472;2022-07-10T07:22:46;81.63;;;2.67;;
4895;SDS011;2463;49.948;8.472;2022-07-10T07:25:31;80.90;;;2.30;;
4895;SDS011;2463;49.948;8.472;2022-07-10T07:27:58;81.63;;;3.30;;
4895;SDS011;2463;49.948;8.472;2022-07-10T07:30:25;83.57;;;2.63;;
4895;SDS011;2463;49.948;8.472;2022-07-10T07:32:51;81.57;;;2.63;;
4895;SDS011;2463;49.948;8.472;2022-07-10T07:35:18;83.60;;;2.70;;
4895;SDS011;2463;49.948;8.472;2022-07-10T07:37:46;83.17;;;2.73;;
4895;SDS011;2463;49.948;8.472;2022-07-10T07:40:23;83.47;;;2.93;;
4895;SDS011;2463;49.948;8.472;2022-07-10T07:42:50;84.10;;;2.60;;
4895;SDS011;2463;49.948;8.472;2022-07-10T07:45:19;85.20;;;3.03;;
4895;SDS011;2463;49.948;8.472;2022-07-10T07:47:51;86.33;;;3.13;;
4895;SDS011;2463;49.948;8.472;2022-07-10T07:50:20;84.70;;;3.30;;
4895;SDS011;2463;49.948;8.472;2022-07-10T07:52:48;86.27;;;3.27;;
4895;SDS011;2463;49.948;8.472;2022-07-10T07:55:16;85.67;;;3.03;;
4895;SDS011;2463;49.948;8.472;2022-07-10T07:57:44;89.10;;;3.30;;
4895;SDS011;2463;49.948;8.472;2022-07-10T08:00:12;90.60;;;3.60;;
4895;SDS011;2463;49.948;8.472;2022-07-10T08:02:41;88.27;;;4.10;;
4895;SDS011;2463;49.948;8.472;2022-07-10T08:05:08;86.83;;;3.20;;
4895;SDS011;2463;49.948;8.472;2022-07-10T08:07:39;88.37;;;3.40;;
4895;SDS011;2463;49.948;8.472;2022-07-10T08:10:08;92.93;;;3.63;;
4895;SDS011;2463;49.948;8.472;2022-07-10T08:12:39;86.50;;;3.20;;
4895;SDS011;2463;49.948;8.472;2022-07-10T08:15:07;89.47;;;3.80;;
4895;SDS011;2463;49.948;8.472;2022-07-10T08:17:35;88.70;;;3.40;;
4895;SDS011;2463;49.948;8.472;2022-07-10T08:20:03;89.10;;;3.40;;
4895;SDS011;2463;49.948;8.472;2022-07-10T08:22:32;85.97;;;3.20;;
4895;SDS011;2463;49.948;8.472;2022-07-10T08:24:59;86.53;;;3.30;;
4895;SDS011;2463;49.948;8.472;2022-07-10T08:27:26;85.67;;;3.10;;
4895;SDS011;2463;49.948;8.472;2022-07-10T08:29:53;88.17;;;3.20;;
4895;SDS011;2463;49.948;8.472;2022-07-10T08:32:20;85.97;;;3.20;;
4895;SDS011;2463;49.948;8.472;2022-07-10T08:34:47;89.30;;;3.33;;
4895;SDS011;2463;49.948;8.472;2022-07-10T08:37:14;86.57;;;3.20;;
4895;SDS011;2463;49.948;8.472;2022-07-10T08:39:41;86.50;;;3.30;;
4895;SDS011;2463;49.948;8.472;2022-07-10T08:42:08;86.87;;;3.40;;
4895;SDS011;2463;49.948;8.472;2022-07-10T08:44:37;86.53;;;3.50;;
4895;SDS011;2463;49.948;8.472;2022-07-10T08:47:04;87.30;;;3.40;;
4895;SDS011;2463;49.948;8.472;2022-07-10T08:49:31;85.00;;;2.80;;
4895;SDS011;2463;49.948;8.472;2022-07-10T08:54:31;87.37;;;3.30;;
4895;SDS011;2463;49.948;8.472;2022-07-10T08:57:00;89.00;;;3.30;;
4895;SDS011;2463;49.948;8.472;2022-07-10T08:59:28;88.17;;;3.40;;
4895;SDS011;2463;49.948;8.472;2022-07-10T09:01:57;86.80;;;3.30;;
4895;SDS011;2463;49.948;8.472;2022-07-10T09:04:25;86.17;;;3.20;;
4895;SDS011;2463;49.948;8.472;2022-07-10T09:06:53;86.83;;;3.00;;
4895;SDS011;2463;49.948;8.472;2022-07-10T09:09:21;88.47;;;3.30;;
4895;SDS011;2463;49.948;8.472;2022-07-10T09:11:54;87.97;;;3.23;;
4895;SDS011;2463;49.948;8.472;2022-07-10T09:14:25;89.23;;;3.20;;
4895;SDS011;2463;49.948;8.472;2022-07-10T09:17:01;85.27;;;3.20;;
4895;SDS011;2463;49.948;8.472;2022-07-10T09:19:28;88.00;;;3.23;;
4895;SDS011;2463;49.948;8.472;2022-07-10T09:22:08;86.87;;;3.50;;
4895;SDS011;2463;49.948;8.472;2022-07-10T09:24:37;87.50;;;3.40;;
4895;SDS011;2463;49.948;8.472;2022-07-10T09:27:05;86.33;;;3.30;;
4895;SDS011;2463;49.948;8.472;2022-07-10T09:29:32;84.97;;;3.50;;
4895;SDS011;2463;49.948;8.472;2022-07-10T09:32:10;90.87;;;3.40;;
4895;SDS011;2463;49.948;8.472;2022-07-10T09:34:41;87.30;;;3.40;;
4895;SDS011;2463;49.948;8.472;2022-07-10T09:39:55;86.97;;;3.70;;
4895;SDS011;2463;49.948;8.472;2022-07-10T09:42:26;87.87;;;3.40;;
4895;SDS011;2463;49.948;8.472;2022-07-10T09:47:40;86.93;;;3.30;;
4895;SDS011;2463;49.948;8.472;2022-07-10T09:50:21;85.20;;;3.30;;
4895;SDS011;2463;49.948;8.472;2022-07-10T09:52:55;87.30;;;3.30;;
4895;SDS011;2463;49.948;8.472;2022-07-10T09:55:34;86.30;;;3.53;;
4895;SDS011;2463;49.948;8.472;2022-07-10T10:00:33;88.20;;;3.50;;
4895;SDS011;2463;49.948;8.472;2022-07-10T10:03:01;86.93;;;3.40;;
4895;SDS011;2463;49.948;8.472;2022-07-10T10:08:12;86.97;;;3.20;;
4895;SDS011;2463;49.948;8.472;2022-07-10T10:10:52;89.47;;;3.03;;
4895;SDS011;2463;49.948;8.472;2022-07-10T10:13:22;85.77;;;3.20;;
4895;SDS011;2463;49.948;8.472;2022-07-10T10:15:54;86.00;;;3.00;;
4895;SDS011;2463;49.948;8.472;2022-07-10T10:18:21;86.40;;;3.20;;
4895;SDS011;2463;49.948;8.472;2022-07-10T10:20:50;86.67;;;3.50;;
4895;SDS011;2463;49.948;8.472;2022-07-10T10:23:19;84.10;;;3.00;;
4895;SDS011;2463;49.948;8.472;2022-07-10T10:25:54;84.97;;;3.20;;
4895;SDS011;2463;49.948;8.472;2022-07-10T10:28:23;86.90;;;3.50;;
4895;SDS011;2463;49.948;8.472;2022-07-10T10:30:51;87.30;;;3.50;;
4895;SDS011;2463;49.948;8.472;2022-07-10T10:36:08;83.67;;;2.90;;
4895;SDS011;2463;49.948;8.472;2022-07-10T10:41:25;84.07;;;3.10;;
4895;SDS011;2463;49.948;8.472;2022-07-10T10:46:33;95.50;;;4.23;;
4895;SDS011;2463;49.948;8.472;2022-07-10T10:49:04;86.07;;;3.53;;
4895;SDS011;2463;49.948;8.472;2022-07-10T10:51:55;85.33;;;3.33;;
4895;SDS011;2463;49.948;8.472;2022-07-10T10:57:23;85.30;;;3.27;;
4895;SDS011;2463;49.948;8.472;2022-07-10T11:00:02;86.30;;;3.30;;
4895;SDS011;2463;49.948;8.472;2022-07-10T11:02:37;90.50;;;3.77;;
4895;SDS011;2463;49.948;8.472;2022-07-10T11:10:28;86.40;;;3.30;;
4895;SDS011;2463;49.948;8.472;2022-07-10T11:13:14;87.13;;;3.27;;
4895;SDS011;2463;49.948;8.472;2022-07-10T11:15:43;87.23;;;3.23;;
4895;SDS011;2463;49.948;8.472;2022-07-10T11:18:12;84.90;;;3.10;;
4895;SDS011;2463;49.948;8.472;2022-07-10T11:20:44;85.43;;;3.30;;
4895;SDS011;2463;49.948;8.472;2022-07-10T11:26:02;85.30;;;3.07;;
4895;SDS011;2463;49.948;8.472;2022-07-10T11:28:41;85.67;;;3.20;;
4895;SDS011;2463;49.948;8.472;2022-07-10T11:31:28;88.20;;;3.50;;
4895;SDS011;2463;49.948;8.472;2022-07-10T11:33:57;85.77;;;3.20;;
4895;SDS011;2463;49.948;8.472;2022-07-10T11:36:24;85.63;;;3.23;;
4895;SDS011;2463;49.948;8.472;2022-07-10T11:39:02;85.40;;;3.30;;
4895;SDS011;2463;49.948;8.472;2022-07-10T11:41:33;84.80;;;3.20;;
4895;SDS011;2463;49.948;8.472;2022-07-10T11:44:01;88.37;;;3.60;;
4895;SDS011;2463;49.948;8.472;2022-07-10T11:46:30;88.50;;;3.40;;
4895;SDS011;2463;49.948;8.472;2022-07-10T11:48:59;86.13;;;3.07;;
4895;SDS011;2463;49.948;8.472;2022-07-10T11:53:58;84.60;;;3.30;;
4895;SDS011;2463;49.948;8.472;2022-07-10T11:56:35;85.17;;;3.30;;
4895;SDS011;2463;49.948;8.472;2022-07-10T12:01:33;83.93;;;3.13;;
4895;SDS011;2463;49.948;8.472;2022-07-10T12:04:07;89.10;;;4.10;;
4895;SDS011;2463;49.948;8.472;2022-07-10T12:06:36;86.50;;;3.33;;
4895;SDS011;2463;49.948;8.472;2022-07-10T12:09:11;88.10;;;4.23;;
4895;SDS011;2463;49.948;8.472;2022-07-10T12:11:43;85.07;;;3.20;;
4895;SDS011;2463;49.948;8.472;2022-07-10T12:14:14;90.50;;;5.03;;
4895;SDS011;2463;49.948;8.472;2022-07-10T12:16:46;89.80;;;3.60;;
4895;SDS011;2463;49.948;8.472;2022-07-10T12:19:27;86.67;;;3.30;;
4895;SDS011;2463;49.948;8.472;2022-07-10T12:21:57;85.77;;;3.17;;
4895;SDS011;2463;49.948;8.472;2022-07-10T12:24:25;86.70;;;3.00;;
4895;SDS011;2463;49.948;8.472;2022-07-10T12:26:52;84.77;;;3.57;;
4895;SDS011;2463;49.948;8.472;2022-07-10T12:29:25;83.80;;;3.07;;
4895;SDS011;2463;49.948;8.472;2022-07-10T12:31:54;85.67;;;3.10;;
4895;SDS011;2463;49.948;8.472;2022-07-10T12:34:32;84.23;;;3.10;;
4895;SDS011;2463;49.948;8.472;2022-07-10T12:37:06;85.80;;;3.20;;
4895;SDS011;2463;49.948;8.472;2022-07-10T12:39:36;83.73;;;2.73;;
4895;SDS011;2463;49.948;8.472;2022-07-10T12:42:26;86.40;;;3.00;;
4895;SDS011;2463;49.948;8.472;2022-07-10T12:44:53;83.50;;;2.90;;
4895;SDS011;2463;49.948;8.472;2022-07-10T12:47:20;81.97;;;2.73;;
4895;SDS011;2463;49.948;8.472;2022-07-10T12:52:25;84.20;;;3.60;;
4895;SDS011;2463;49.948;8.472;2022-07-10T12:55:16;86.37;;;3.03;;
4895;SDS011;2463;49.948;8.472;2022-07-10T12:57:51;83.90;;;2.90;;
4895;SDS011;2463;49.948;8.472;2022-07-10T13:00:23;84.40;;;3.77;;
4895;SDS011;2463;49.948;8.472;2022-07-10T13:02:56;82.70;;;3.03;;
4895;SDS011;2463;49.948;8.472;2022-07-10T13:08:15;85.47;;;3.10;;
4895;SDS011;2463;49.948;8.472;2022-07-10T13:10:55;82.10;;;2.70;;
4895;SDS011;2463;49.948;8.472;2022-07-10T13:13:22;83.03;;;2.77;;
4895;SDS011;2463;49.948;8.472;2022-07-10T13:15:49;84.00;;;2.90;;
4895;SDS011;2463;49.948;8.472;2022-07-10T13:18:20;88.67;;;3.27;;
4895;SDS011;2463;49.948;8.472;2022-07-10T13:20:48;85.80;;;2.90;;
4895;SDS011;2463;49.948;8.472;2022-07-10T13:23:20;83.67;;;2.67;;
4895;SDS011;2463;49.948;8.472;2022-07-10T13:25:54;82.20;;;3.30;;
4895;SDS011;2463;49.948;8.472;2022-07-10T13:28:25;82.40;;;3.10;;
4895;SDS011;2463;49.948;8.472;2022-07-10T13:30:52;83.10;;;3.10;;
4895;SDS011;2463;49.948;8.472;2022-07-10T13:33:18;82.67;;;2.80;;
4895;SDS011;2463;49.948;8.472;2022-07-10T13:35:46;83.30;;;2.70;;
4895;SDS011;2463;49.948;8.472;2022-07-10T13:38:13;83.13;;;2.67;;
4895;SDS011;2463;49.948;8.472;2022-07-10T13:40:43;80.90;;;2.63;;
4895;SDS011;2463;49.948;8.472;2022-07-10T13:43:10;83.67;;;2.50;;
4895;SDS011;2463;49.948;8.472;2022-07-10T13:45:39;81.23;;;2.57;;
4895;SDS011;2463;49.948;8.472;2022-07-10T13:48:09;83.77;;;2.57;;
4895;SDS011;2463;49.948;8.472;2022-07-10T13:50:37;81.70;;;2.60;;
4895;SDS011;2463;49.948;8.472;2022-07-10T13:53:04;81.07;;;2.70;;
4895;SDS011;2463;49.948;8.472;2022-07-10T13:55:32;83.90;;;2.50;;
4895;SDS011;2463;49.948;8.472;2022-07-10T13:57:59;83.47;;;2.60;;
4895;SDS011;2463;49.948;8.472;2022-07-10T14:00:26;83.60;;;2.83;;
4895;SDS011;2463;49.948;8.472;2022-07-10T14:02:53;83.57;;;2.80;;
4895;SDS011;2463;49.948;8.472;2022-07-10T14:05:22;82.90;;;2.77;;
4895;SDS011;2463;49.948;8.472;2022-07-10T14:07:50;84.30;;;3.20;;
4895;SDS011;2463;49.948;8.472;2022-07-10T14:10:17;83.40;;;2.90;;
4895;SDS011;2463;49.948;8.472;2022-07-10T14:12:44;83.60;;;3.00;;
4895;SDS011;2463;49.948;8.472;2022-07-10T14:15:10;84.03;;;2.90;;
4895;SDS011;2463;49.948;8.472;2022-07-10T14:17:37;85.87;;;3.50;;
4895;SDS011;2463;49.948;8.472;2022-07-10T14:20:04;83.17;;;2.90;;
4895;SDS011;2463;49.948;8.472;2022-07-10T14:22:31;83.40;;;2.90;;
4895;SDS011;2463;49.948;8.472;2022-07-10T14:24:58;83.30;;;2.90;;
4895;SDS011;2463;49.948;8.472;2022-07-10T14:27:26;84.90;;;3.27;;
4895;SDS011;2463;49.948;8.472;2022-07-10T14:29:55;82.47;;;2.90;;
4895;SDS011;2463;49.948;8.472;2022-07-10T14:32:22;83.77;;;2.93;;
4895;SDS011;2463;49.948;8.472;2022-07-10T14:34:48;85.23;;;3.03;;
4895;SDS011;2463;49.948;8.472;2022-07-10T14:37:15;83.70;;;2.90;;
4895;SDS011;2463;49.948;8.472;2022-07-10T14:39:42;86.17;;;2.73;;
4895;SDS011;2463;49.948;8.472;2022-07-10T14:42:09;84.47;;;3.10;;
4895;SDS011;2463;49.948;8.472;2022-07-10T14:44:36;85.17;;;3.20;;
4895;SDS011;2463;49.948;8.472;2022-07-10T14:47:02;84.97;;;3.23;;
4895;SDS011;2463;49.948;8.472;2022-07-10T14:49:30;87.40;;;3.00;;
4895;SDS011;2463;49.948;8.472;2022-07-10T14:51:57;83.17;;;3.07;;
4895;SDS011;2463;49.948;8.472;2022-07-10T14:54:24;84.73;;;3.00;;
4895;SDS011;2463;49.948;8.472;2022-07-10T14:56:50;84.23;;;3.10;;
4895;SDS011;2463;49.948;8.472;2022-07-10T14:59:17;84.30;;;2.90;;
4895;SDS011;2463;49.948;8.472;2022-07-10T15:01:44;86.50;;;3.00;;
4895;SDS011;2463;49.948;8.472;2022-07-10T15:04:11;85.67;;;3.47;;
4895;SDS011;2463;49.948;8.472;2022-07-10T15:06:37;83.77;;;3.00;;
4895;SDS011;2463;49.948;8.472;2022-07-10T15:09:04;84.57;;;3.10;;
4895;SDS011;2463;49.948;8.472;2022-07-10T15:11:31;83.87;;;2.77;;
4895;SDS011;2463;49.948;8.472;2022-07-10T15:14:00;85.67;;;3.10;;
4895;SDS011;2463;49.948;8.472;2022-07-10T15:16:27;83.00;;;2.93;;
4895;SDS011;2463;49.948;8.472;2022-07-10T15:18:54;84.07;;;3.20;;
4895;SDS011;2463;49.948;8.472;2022-07-10T15:21:21;84.10;;;3.00;;
4895;SDS011;2463;49.948;8.472;2022-07-10T15:23:48;84.30;;;3.20;;
4895;SDS011;2463;49.948;8.472;2022-07-10T15:26:16;84.87;;;3.53;;
4895;SDS011;2463;49.948;8.472;2022-07-10T15:28:43;84.27;;;3.20;;
4895;SDS011;2463;49.948;8.472;2022-07-10T15:31:10;84.63;;;3.30;;
4895;SDS011;2463;49.948;8.472;2022-07-10T15:33:37;83.33;;;2.87;;
4895;SDS011;2463;49.948;8.472;2022-07-10T15:36:10;84.97;;;2.70;;
4895;SDS011;2463;49.948;8.472;2022-07-10T15:38:38;83.90;;;2.97;;
4895;SDS011;2463;49.948;8.472;2022-07-10T15:41:06;84.63;;;2.87;;
4895;SDS011;2463;49.948;8.472;2022-07-10T15:43:32;83.97;;;3.10;;
4895;SDS011;2463;49.948;8.472;2022-07-10T15:45:59;83.67;;;2.93;;
4895;SDS011;2463;49.948;8.472;2022-07-10T15:48:26;84.07;;;3.20;;
4895;SDS011;2463;49.948;8.472;2022-07-10T15:50:53;83.67;;;2.97;;